Porcupine Plain, Canada
Current Conditions -  °F | °C
As of 2:00 AM on Friday 28 Nov 2014 (Local Time) from CYBU Reporting Station
Overcast Overcast  
Wind Chill: -20°   Ceiling: 1500
Heat Index: -2°   Visibility: 9mi
Dew Point: -6°   Wind: 12mph
Humidity: 85%   Direction: 20°NNE
Pressure: 30.13"   Gusts: NA
Location:  52.6°N, 103.25°W
Report Text: CYBU 280800Z AUTO 02010KT 9SM OVC015 M19/M21 A3013 RMK SLP240
Loading
Personal Weather Stations






























Interactive Weather Map New forecast layout! Learn more

10-Day Weather Forecast

Advertisements
Track Severe Weather on mobile